sensor_id;sensor_type;location;lat;lon;timestamp;P1;durP1;ratioP1;P2;durP2;ratioP2
29218;SDS011;16421;50.202;7.852;2022-12-18T00:01:52;19.30;;;9.35;;
29218;SDS011;16421;50.202;7.852;2022-12-18T00:06:56;15.05;;;7.13;;
29218;SDS011;16421;50.202;7.852;2022-12-18T00:11:59;16.25;;;7.47;;
29218;SDS011;16421;50.202;7.852;2022-12-18T00:17:04;25.58;;;11.52;;
29218;SDS011;16421;50.202;7.852;2022-12-18T00:27:12;23.50;;;11.13;;
29218;SDS011;16421;50.202;7.852;2022-12-18T00:32:17;22.08;;;9.38;;
29218;SDS011;16421;50.202;7.852;2022-12-18T00:37:20;19.52;;;8.75;;
29218;SDS011;16421;50.202;7.852;2022-12-18T00:42:24;24.80;;;10.55;;
29218;SDS011;16421;50.202;7.852;2022-12-18T00:47:47;25.40;;;10.35;;
29218;SDS011;16421;50.202;7.852;2022-12-18T00:52:50;25.45;;;10.52;;
29218;SDS011;16421;50.202;7.852;2022-12-18T00:57:54;23.77;;;10.10;;
29218;SDS011;16421;50.202;7.852;2022-12-18T01:02:59;24.50;;;11.00;;
29218;SDS011;16421;50.202;7.852;2022-12-18T01:08:04;24.50;;;10.65;;
29218;SDS011;16421;50.202;7.852;2022-12-18T01:13:07;22.52;;;10.10;;
29218;SDS011;16421;50.202;7.852;2022-12-18T01:18:12;16.42;;;8.68;;
29218;SDS011;16421;50.202;7.852;2022-12-18T01:23:15;21.13;;;9.33;;
29218;SDS011;16421;50.202;7.852;2022-12-18T01:28:19;22.13;;;9.40;;
29218;SDS011;16421;50.202;7.852;2022-12-18T01:33:24;19.48;;;8.48;;
29218;SDS011;16421;50.202;7.852;2022-12-18T01:38:28;21.45;;;8.88;;
29218;SDS011;16421;50.202;7.852;2022-12-18T01:43:46;17.65;;;8.52;;
29218;SDS011;16421;50.202;7.852;2022-12-18T01:48:54;20.35;;;9.18;;
29218;SDS011;16421;50.202;7.852;2022-12-18T01:54:00;18.98;;;8.52;;
29218;SDS011;16421;50.202;7.852;2022-12-18T01:59:05;20.55;;;8.73;;
29218;SDS011;16421;50.202;7.852;2022-12-18T02:04:20;22.65;;;10.45;;
29218;SDS011;16421;50.202;7.852;2022-12-18T02:09:26;20.60;;;10.02;;
29218;SDS011;16421;50.202;7.852;2022-12-18T02:14:37;18.40;;;8.95;;
29218;SDS011;16421;50.202;7.852;2022-12-18T02:19:51;25.08;;;9.63;;
29218;SDS011;16421;50.202;7.852;2022-12-18T02:25:12;22.73;;;11.50;;
29218;SDS011;16421;50.202;7.852;2022-12-18T02:30:24;21.70;;;10.15;;
29218;SDS011;16421;50.202;7.852;2022-12-18T02:35:29;23.40;;;12.13;;
29218;SDS011;16421;50.202;7.852;2022-12-18T02:40:35;31.25;;;13.50;;
29218;SDS011;16421;50.202;7.852;2022-12-18T02:45:47;23.75;;;11.68;;
29218;SDS011;16421;50.202;7.852;2022-12-18T02:50:56;25.48;;;11.05;;
29218;SDS011;16421;50.202;7.852;2022-12-18T02:56:07;21.95;;;10.27;;
29218;SDS011;16421;50.202;7.852;2022-12-18T03:01:18;20.77;;;9.40;;
29218;SDS011;16421;50.202;7.852;2022-12-18T03:06:27;19.27;;;9.30;;
29218;SDS011;16421;50.202;7.852;2022-12-18T03:11:33;23.02;;;10.85;;
29218;SDS011;16421;50.202;7.852;2022-12-18T03:17:00;23.05;;;10.73;;
29218;SDS011;16421;50.202;7.852;2022-12-18T03:22:08;26.13;;;12.07;;
29218;SDS011;16421;50.202;7.852;2022-12-18T03:27:21;20.23;;;9.55;;
29218;SDS011;16421;50.202;7.852;2022-12-18T03:32:31;19.38;;;8.82;;
29218;SDS011;16421;50.202;7.852;2022-12-18T03:37:38;22.02;;;10.20;;
29218;SDS011;16421;50.202;7.852;2022-12-18T03:42:44;26.10;;;12.07;;
29218;SDS011;16421;50.202;7.852;2022-12-18T03:47:59;27.00;;;11.95;;
29218;SDS011;16421;50.202;7.852;2022-12-18T03:53:17;22.25;;;10.88;;
29218;SDS011;16421;50.202;7.852;2022-12-18T03:58:28;26.25;;;11.23;;
29218;SDS011;16421;50.202;7.852;2022-12-18T04:03:49;23.73;;;11.50;;
29218;SDS011;16421;50.202;7.852;2022-12-18T04:08:55;26.40;;;11.48;;
29218;SDS011;16421;50.202;7.852;2022-12-18T04:14:01;23.67;;;10.48;;
29218;SDS011;16421;50.202;7.852;2022-12-18T04:19:11;20.58;;;10.13;;
29218;SDS011;16421;50.202;7.852;2022-12-18T04:24:17;17.30;;;9.10;;
29218;SDS011;16421;50.202;7.852;2022-12-18T04:29:34;16.83;;;8.05;;
29218;SDS011;16421;50.202;7.852;2022-12-18T04:34:40;25.33;;;12.38;;
29218;SDS011;16421;50.202;7.852;2022-12-18T04:44:55;22.73;;;11.60;;
29218;SDS011;16421;50.202;7.852;2022-12-18T04:50:00;25.70;;;11.25;;
29218;SDS011;16421;50.202;7.852;2022-12-18T04:55:04;21.00;;;11.57;;
29218;SDS011;16421;50.202;7.852;2022-12-18T05:00:08;26.27;;;12.18;;
29218;SDS011;16421;50.202;7.852;2022-12-18T05:05:14;26.97;;;12.30;;
29218;SDS011;16421;50.202;7.852;2022-12-18T05:10:17;23.02;;;11.30;;
29218;SDS011;16421;50.202;7.852;2022-12-18T05:15:21;23.75;;;11.13;;
29218;SDS011;16421;50.202;7.852;2022-12-18T05:20:26;23.92;;;11.60;;
29218;SDS011;16421;50.202;7.852;2022-12-18T05:25:30;24.90;;;11.32;;
29218;SDS011;16421;50.202;7.852;2022-12-18T05:30:34;21.90;;;10.88;;
29218;SDS011;16421;50.202;7.852;2022-12-18T05:35:39;20.08;;;10.40;;
29218;SDS011;16421;50.202;7.852;2022-12-18T05:40:44;28.77;;;14.25;;
29218;SDS011;16421;50.202;7.852;2022-12-18T05:45:48;28.50;;;13.50;;
29218;SDS011;16421;50.202;7.852;2022-12-18T05:50:53;29.30;;;11.75;;
29218;SDS011;16421;50.202;7.852;2022-12-18T06:01:06;24.73;;;11.33;;
29218;SDS011;16421;50.202;7.852;2022-12-18T06:06:15;26.15;;;12.00;;
29218;SDS011;16421;50.202;7.852;2022-12-18T06:11:21;21.35;;;11.10;;
29218;SDS011;16421;50.202;7.852;2022-12-18T06:21:31;20.88;;;10.43;;
29218;SDS011;16421;50.202;7.852;2022-12-18T06:26:36;21.67;;;10.73;;
29218;SDS011;16421;50.202;7.852;2022-12-18T06:31:44;20.95;;;9.77;;
29218;SDS011;16421;50.202;7.852;2022-12-18T06:36:49;24.05;;;12.07;;
29218;SDS011;16421;50.202;7.852;2022-12-18T06:41:53;19.30;;;9.48;;
29218;SDS011;16421;50.202;7.852;2022-12-18T06:46:56;23.20;;;10.07;;
29218;SDS011;16421;50.202;7.852;2022-12-18T06:52:01;23.48;;;10.55;;
29218;SDS011;16421;50.202;7.852;2022-12-18T06:57:05;19.58;;;10.68;;
29218;SDS011;16421;50.202;7.852;2022-12-18T07:02:10;19.30;;;10.40;;
29218;SDS011;16421;50.202;7.852;2022-12-18T07:07:15;25.17;;;12.07;;
29218;SDS011;16421;50.202;7.852;2022-12-18T07:12:19;23.65;;;13.02;;
29218;SDS011;16421;50.202;7.852;2022-12-18T07:17:23;24.80;;;12.85;;
29218;SDS011;16421;50.202;7.852;2022-12-18T07:22:28;21.77;;;11.88;;
29218;SDS011;16421;50.202;7.852;2022-12-18T07:32:38;23.70;;;11.82;;
29218;SDS011;16421;50.202;7.852;2022-12-18T07:37:43;22.35;;;10.27;;
29218;SDS011;16421;50.202;7.852;2022-12-18T07:42:48;21.08;;;10.90;;
29218;SDS011;16421;50.202;7.852;2022-12-18T07:47:51;20.08;;;11.43;;
29218;SDS011;16421;50.202;7.852;2022-12-18T07:52:56;24.55;;;11.48;;
29218;SDS011;16421;50.202;7.852;2022-12-18T07:58:04;23.95;;;12.65;;
29218;SDS011;16421;50.202;7.852;2022-12-18T08:03:08;21.92;;;11.85;;
29218;SDS011;16421;50.202;7.852;2022-12-18T08:08:13;26.90;;;12.60;;
29218;SDS011;16421;50.202;7.852;2022-12-18T08:13:16;23.13;;;10.48;;
29218;SDS011;16421;50.202;7.852;2022-12-18T08:18:22;20.27;;;10.18;;
29218;SDS011;16421;50.202;7.852;2022-12-18T08:23:28;21.55;;;11.60;;
29218;SDS011;16421;50.202;7.852;2022-12-18T08:28:37;26.35;;;12.00;;
29218;SDS011;16421;50.202;7.852;2022-12-18T08:33:40;29.50;;;14.07;;
29218;SDS011;16421;50.202;7.852;2022-12-18T08:38:46;35.35;;;15.57;;
29218;SDS011;16421;50.202;7.852;2022-12-18T08:43:50;26.38;;;12.68;;
29218;SDS011;16421;50.202;7.852;2022-12-18T08:49:11;29.88;;;13.48;;
29218;SDS011;16421;50.202;7.852;2022-12-18T08:54:16;23.30;;;11.45;;
29218;SDS011;16421;50.202;7.852;2022-12-18T08:59:19;24.92;;;12.27;;
29218;SDS011;16421;50.202;7.852;2022-12-18T09:04:24;23.40;;;11.65;;
29218;SDS011;16421;50.202;7.852;2022-12-18T09:09:29;24.77;;;11.07;;
29218;SDS011;16421;50.202;7.852;2022-12-18T09:14:34;24.75;;;12.60;;
29218;SDS011;16421;50.202;7.852;2022-12-18T09:19:41;21.48;;;12.05;;
29218;SDS011;16421;50.202;7.852;2022-12-18T09:24:49;20.65;;;10.18;;
29218;SDS011;16421;50.202;7.852;2022-12-18T09:29:53;25.58;;;12.07;;
29218;SDS011;16421;50.202;7.852;2022-12-18T09:34:56;26.40;;;11.77;;
29218;SDS011;16421;50.202;7.852;2022-12-18T09:40:02;29.77;;;13.20;;
29218;SDS011;16421;50.202;7.852;2022-12-18T09:45:07;23.13;;;11.50;;
29218;SDS011;16421;50.202;7.852;2022-12-18T09:50:22;19.20;;;10.32;;
29218;SDS011;16421;50.202;7.852;2022-12-18T09:55:31;19.23;;;9.75;;
29218;SDS011;16421;50.202;7.852;2022-12-18T10:00:38;18.95;;;9.55;;
29218;SDS011;16421;50.202;7.852;2022-12-18T10:05:43;18.50;;;9.48;;
29218;SDS011;16421;50.202;7.852;2022-12-18T10:10:57;21.48;;;10.40;;
29218;SDS011;16421;50.202;7.852;2022-12-18T10:16:08;20.10;;;10.90;;
29218;SDS011;16421;50.202;7.852;2022-12-18T10:21:18;19.73;;;9.13;;
29218;SDS011;16421;50.202;7.852;2022-12-18T10:26:25;22.65;;;10.65;;
29218;SDS011;16421;50.202;7.852;2022-12-18T10:31:28;24.85;;;11.85;;
29218;SDS011;16421;50.202;7.852;2022-12-18T10:36:32;24.05;;;12.20;;
29218;SDS011;16421;50.202;7.852;2022-12-18T10:41:37;20.00;;;9.25;;
29218;SDS011;16421;50.202;7.852;2022-12-18T10:46:40;25.58;;;12.10;;
29218;SDS011;16421;50.202;7.852;2022-12-18T10:51:44;18.55;;;10.30;;
29218;SDS011;16421;50.202;7.852;2022-12-18T10:56:49;21.85;;;10.00;;
29218;SDS011;16421;50.202;7.852;2022-12-18T11:01:53;16.38;;;8.40;;
29218;SDS011;16421;50.202;7.852;2022-12-18T11:06:59;24.20;;;11.27;;
29218;SDS011;16421;50.202;7.852;2022-12-18T11:17:21;31.02;;;13.15;;
29218;SDS011;16421;50.202;7.852;2022-12-18T11:22:30;34.88;;;13.95;;
29218;SDS011;16421;50.202;7.852;2022-12-18T11:27:37;26.70;;;12.32;;
29218;SDS011;16421;50.202;7.852;2022-12-18T11:32:41;26.23;;;11.30;;
29218;SDS011;16421;50.202;7.852;2022-12-18T11:37:48;22.75;;;10.27;;
29218;SDS011;16421;50.202;7.852;2022-12-18T11:43:01;25.70;;;11.55;;
29218;SDS011;16421;50.202;7.852;2022-12-18T11:48:12;22.80;;;10.77;;
29218;SDS011;16421;50.202;7.852;2022-12-18T11:53:19;15.85;;;7.70;;
29218;SDS011;16421;50.202;7.852;2022-12-18T11:58:28;12.63;;;6.28;;
29218;SDS011;16421;50.202;7.852;2022-12-18T12:03:47;16.05;;;6.78;;
29218;SDS011;16421;50.202;7.852;2022-12-18T12:09:03;15.68;;;8.30;;
29218;SDS011;16421;50.202;7.852;2022-12-18T12:14:20;14.45;;;6.60;;
29218;SDS011;16421;50.202;7.852;2022-12-18T12:19:37;15.63;;;7.47;;
29218;SDS011;16421;50.202;7.852;2022-12-18T12:24:53;13.82;;;7.72;;
29218;SDS011;16421;50.202;7.852;2022-12-18T12:30:06;16.90;;;8.45;;
29218;SDS011;16421;50.202;7.852;2022-12-18T12:35:14;14.52;;;7.10;;
29218;SDS011;16421;50.202;7.852;2022-12-18T12:40:26;14.75;;;7.75;;
29218;SDS011;16421;50.202;7.852;2022-12-18T12:45:54;11.73;;;6.20;;
29218;SDS011;16421;50.202;7.852;2022-12-18T12:51:02;13.20;;;6.05;;
29218;SDS011;16421;50.202;7.852;2022-12-18T12:56:11;12.15;;;6.03;;
29218;SDS011;16421;50.202;7.852;2022-12-18T13:01:20;21.20;;;10.23;;
29218;SDS011;16421;50.202;7.852;2022-12-18T13:06:32;26.40;;;11.88;;
29218;SDS011;16421;50.202;7.852;2022-12-18T13:11:45;26.53;;;12.73;;
29218;SDS011;16421;50.202;7.852;2022-12-18T13:17:22;18.30;;;9.50;;
29218;SDS011;16421;50.202;7.852;2022-12-18T13:22:31;22.20;;;10.00;;
29218;SDS011;16421;50.202;7.852;2022-12-18T13:44:35;16.58;;;8.20;;
29218;SDS011;16421;50.202;7.852;2022-12-18T13:49:43;16.27;;;7.97;;
29218;SDS011;16421;50.202;7.852;2022-12-18T13:54:49;16.58;;;8.68;;
29218;SDS011;16421;50.202;7.852;2022-12-18T13:59:55;15.68;;;6.90;;
29218;SDS011;16421;50.202;7.852;2022-12-18T14:05:00;14.93;;;7.47;;
29218;SDS011;16421;50.202;7.852;2022-12-18T14:10:10;15.52;;;6.80;;
29218;SDS011;16421;50.202;7.852;2022-12-18T14:15:34;12.35;;;6.00;;
29218;SDS011;16421;50.202;7.852;2022-12-18T14:20:43;13.98;;;5.88;;
29218;SDS011;16421;50.202;7.852;2022-12-18T14:25:52;12.13;;;6.65;;
29218;SDS011;16421;50.202;7.852;2022-12-18T14:30:57;14.55;;;6.82;;
29218;SDS011;16421;50.202;7.852;2022-12-18T14:36:03;20.75;;;8.60;;
29218;SDS011;16421;50.202;7.852;2022-12-18T14:41:10;20.67;;;9.57;;
29218;SDS011;16421;50.202;7.852;2022-12-18T14:51:39;24.33;;;11.10;;
29218;SDS011;16421;50.202;7.852;2022-12-18T14:56:49;28.90;;;13.15;;
29218;SDS011;16421;50.202;7.852;2022-12-18T15:02:00;35.70;;;14.70;;
29218;SDS011;16421;50.202;7.852;2022-12-18T15:07:10;26.42;;;12.55;;
29218;SDS011;16421;50.202;7.852;2022-12-18T15:12:19;21.73;;;11.02;;
29218;SDS011;16421;50.202;7.852;2022-12-18T15:17:31;32.50;;;15.33;;
29218;SDS011;16421;50.202;7.852;2022-12-18T15:22:36;26.55;;;13.40;;
29218;SDS011;16421;50.202;7.852;2022-12-18T15:27:40;36.40;;;15.63;;
29218;SDS011;16421;50.202;7.852;2022-12-18T15:32:49;33.13;;;15.70;;
29218;SDS011;16421;50.202;7.852;2022-12-18T15:37:55;29.83;;;12.95;;
29218;SDS011;16421;50.202;7.852;2022-12-18T15:42:59;30.35;;;13.25;;
29218;SDS011;16421;50.202;7.852;2022-12-18T15:48:20;25.00;;;11.75;;
29218;SDS011;16421;50.202;7.852;2022-12-18T15:53:27;25.50;;;12.00;;
29218;SDS011;16421;50.202;7.852;2022-12-18T15:58:33;22.80;;;11.10;;
29218;SDS011;16421;50.202;7.852;2022-12-18T16:03:37;27.45;;;11.70;;
29218;SDS011;16421;50.202;7.852;2022-12-18T16:08:42;23.13;;;10.38;;
29218;SDS011;16421;50.202;7.852;2022-12-18T16:13:49;17.55;;;8.35;;
29218;SDS011;16421;50.202;7.852;2022-12-18T16:18:52;16.70;;;7.90;;
29218;SDS011;16421;50.202;7.852;2022-12-18T16:23:57;17.65;;;8.27;;
29218;SDS011;16421;50.202;7.852;2022-12-18T16:29:00;23.38;;;9.82;;
29218;SDS011;16421;50.202;7.852;2022-12-18T16:34:11;21.35;;;9.65;;
29218;SDS011;16421;50.202;7.852;2022-12-18T16:39:17;17.30;;;7.85;;
29218;SDS011;16421;50.202;7.852;2022-12-18T16:44:21;21.00;;;8.53;;
29218;SDS011;16421;50.202;7.852;2022-12-18T16:49:25;22.85;;;10.13;;
29218;SDS011;16421;50.202;7.852;2022-12-18T16:54:29;21.98;;;8.70;;
29218;SDS011;16421;50.202;7.852;2022-12-18T16:59:34;18.88;;;9.07;;
29218;SDS011;16421;50.202;7.852;2022-12-18T17:04:40;18.70;;;8.02;;
29218;SDS011;16421;50.202;7.852;2022-12-18T17:09:45;16.73;;;7.07;;
29218;SDS011;16421;50.202;7.852;2022-12-18T17:14:52;17.13;;;6.93;;
29218;SDS011;16421;50.202;7.852;2022-12-18T17:19:55;13.80;;;6.63;;
29218;SDS011;16421;50.202;7.852;2022-12-18T17:25:00;15.35;;;6.95;;
29218;SDS011;16421;50.202;7.852;2022-12-18T17:30:04;11.95;;;5.97;;
29218;SDS011;16421;50.202;7.852;2022-12-18T17:35:09;15.82;;;7.35;;
29218;SDS011;16421;50.202;7.852;2022-12-18T17:40:14;12.82;;;6.82;;
29218;SDS011;16421;50.202;7.852;2022-12-18T17:45:18;15.10;;;6.65;;
29218;SDS011;16421;50.202;7.852;2022-12-18T17:50:22;12.95;;;6.03;;
29218;SDS011;16421;50.202;7.852;2022-12-18T17:55:27;15.45;;;6.72;;
29218;SDS011;16421;50.202;7.852;2022-12-18T18:00:31;20.83;;;8.57;;
29218;SDS011;16421;50.202;7.852;2022-12-18T18:05:35;21.63;;;9.75;;
29218;SDS011;16421;50.202;7.852;2022-12-18T18:10:40;20.08;;;8.55;;
29218;SDS011;16421;50.202;7.852;2022-12-18T18:15:43;22.17;;;10.30;;
29218;SDS011;16421;50.202;7.852;2022-12-18T18:20:56;28.67;;;10.65;;
29218;SDS011;16421;50.202;7.852;2022-12-18T18:26:02;30.05;;;13.90;;
29218;SDS011;16421;50.202;7.852;2022-12-18T18:31:08;28.05;;;13.02;;
29218;SDS011;16421;50.202;7.852;2022-12-18T18:36:12;25.57;;;10.53;;
29218;SDS011;16421;50.202;7.852;2022-12-18T18:41:20;30.77;;;12.50;;
29218;SDS011;16421;50.202;7.852;2022-12-18T18:46:25;28.45;;;12.88;;
29218;SDS011;16421;50.202;7.852;2022-12-18T18:51:30;32.13;;;13.73;;
29218;SDS011;16421;50.202;7.852;2022-12-18T18:56:36;30.63;;;12.80;;
29218;SDS011;16421;50.202;7.852;2022-12-18T19:02:00;24.45;;;11.15;;
29218;SDS011;16421;50.202;7.852;2022-12-18T19:07:05;31.88;;;13.38;;
29218;SDS011;16421;50.202;7.852;2022-12-18T19:12:13;30.02;;;13.50;;
29218;SDS011;16421;50.202;7.852;2022-12-18T19:17:34;36.80;;;17.27;;
29218;SDS011;16421;50.202;7.852;2022-12-18T19:22:38;28.50;;;12.32;;
29218;SDS011;16421;50.202;7.852;2022-12-18T19:27:43;23.17;;;10.88;;
29218;SDS011;16421;50.202;7.852;2022-12-18T19:32:47;29.52;;;13.20;;
29218;SDS011;16421;50.202;7.852;2022-12-18T19:37:50;36.00;;;16.67;;
29218;SDS011;16421;50.202;7.852;2022-12-18T19:42:55;25.23;;;10.68;;
29218;SDS011;16421;50.202;7.852;2022-12-18T19:47:58;19.20;;;8.00;;
29218;SDS011;16421;50.202;7.852;2022-12-18T19:58:10;23.35;;;10.32;;
29218;SDS011;16421;50.202;7.852;2022-12-18T20:03:16;24.92;;;10.35;;
29218;SDS011;16421;50.202;7.852;2022-12-18T20:08:25;22.55;;;9.60;;
29218;SDS011;16421;50.202;7.852;2022-12-18T20:13:31;23.95;;;9.93;;
29218;SDS011;16421;50.202;7.852;2022-12-18T20:18:35;27.38;;;12.15;;
29218;SDS011;16421;50.202;7.852;2022-12-18T20:23:38;24.75;;;9.98;;
29218;SDS011;16421;50.202;7.852;2022-12-18T20:28:44;20.10;;;9.18;;
29218;SDS011;16421;50.202;7.852;2022-12-18T20:33:47;73.88;;;26.75;;
29218;SDS011;16421;50.202;7.852;2022-12-18T20:38:51;36.15;;;15.63;;
29218;SDS011;16421;50.202;7.852;2022-12-18T20:43:58;24.15;;;10.48;;
29218;SDS011;16421;50.202;7.852;2022-12-18T20:49:01;25.53;;;11.50;;
29218;SDS011;16421;50.202;7.852;2022-12-18T20:54:05;23.33;;;10.55;;
29218;SDS011;16421;50.202;7.852;2022-12-18T20:59:13;18.48;;;9.65;;
29218;SDS011;16421;50.202;7.852;2022-12-18T21:04:17;20.13;;;9.45;;
29218;SDS011;16421;50.202;7.852;2022-12-18T21:09:21;23.60;;;10.20;;
29218;SDS011;16421;50.202;7.852;2022-12-18T21:14:26;24.35;;;11.27;;
29218;SDS011;16421;50.202;7.852;2022-12-18T21:19:31;23.30;;;11.30;;
29218;SDS011;16421;50.202;7.852;2022-12-18T21:24:34;24.15;;;10.98;;
29218;SDS011;16421;50.202;7.852;2022-12-18T21:29:39;23.85;;;10.88;;
29218;SDS011;16421;50.202;7.852;2022-12-18T21:34:43;27.80;;;12.47;;
29218;SDS011;16421;50.202;7.852;2022-12-18T21:39:48;22.52;;;9.93;;
29218;SDS011;16421;50.202;7.852;2022-12-18T21:44:53;20.10;;;9.30;;
29218;SDS011;16421;50.202;7.852;2022-12-18T21:49:56;17.02;;;8.27;;
29218;SDS011;16421;50.202;7.852;2022-12-18T21:55:00;20.20;;;9.02;;
29218;SDS011;16421;50.202;7.852;2022-12-18T22:00:11;18.17;;;8.60;;
29218;SDS011;16421;50.202;7.852;2022-12-18T22:05:15;15.85;;;7.35;;
29218;SDS011;16421;50.202;7.852;2022-12-18T22:10:18;20.70;;;9.85;;
29218;SDS011;16421;50.202;7.852;2022-12-18T22:15:23;28.27;;;11.95;;
29218;SDS011;16421;50.202;7.852;2022-12-18T22:20:27;23.17;;;11.35;;
29218;SDS011;16421;50.202;7.852;2022-12-18T22:25:30;19.67;;;9.57;;
29218;SDS011;16421;50.202;7.852;2022-12-18T22:30:36;17.90;;;8.15;;
29218;SDS011;16421;50.202;7.852;2022-12-18T22:35:39;21.80;;;10.32;;
29218;SDS011;16421;50.202;7.852;2022-12-18T22:40:43;19.33;;;9.70;;
29218;SDS011;16421;50.202;7.852;2022-12-18T22:45:48;18.77;;;8.07;;
29218;SDS011;16421;50.202;7.852;2022-12-18T22:50:52;21.25;;;10.23;;
29218;SDS011;16421;50.202;7.852;2022-12-18T22:55:59;18.75;;;9.48;;
29218;SDS011;16421;50.202;7.852;2022-12-18T23:01:04;17.83;;;8.27;;
29218;SDS011;16421;50.202;7.852;2022-12-18T23:06:18;30.48;;;13.60;;
29218;SDS011;16421;50.202;7.852;2022-12-18T23:11:23;27.13;;;11.52;;
29218;SDS011;16421;50.202;7.852;2022-12-18T23:16:29;19.13;;;8.77;;
29218;SDS011;16421;50.202;7.852;2022-12-18T23:21:32;19.52;;;9.23;;
29218;SDS011;16421;50.202;7.852;2022-12-18T23:26:36;24.90;;;10.27;;
29218;SDS011;16421;50.202;7.852;2022-12-18T23:31:41;17.15;;;8.05;;
29218;SDS011;16421;50.202;7.852;2022-12-18T23:36:46;19.63;;;8.43;;
29218;SDS011;16421;50.202;7.852;2022-12-18T23:46:55;19.00;;;8.50;;
29218;SDS011;16421;50.202;7.852;2022-12-18T23:51:59;23.52;;;10.45;;
29218;SDS011;16421;50.202;7.852;2022-12-18T23:57:03;21.45;;;10.10;;
